createdAt,value
2017-06-26T00:00:45.862Z,21.60
2017-06-26T00:03:13.337Z,21.60
2017-06-26T00:05:40.804Z,21.50
2017-06-26T00:08:08.515Z,21.50
2017-06-26T00:10:35.969Z,21.50
2017-06-26T00:13:03.835Z,21.50
2017-06-26T00:15:31.733Z,21.50
2017-06-26T00:17:59.205Z,21.50
2017-06-26T00:20:26.662Z,21.50
2017-06-26T00:22:54.158Z,21.50
2017-06-26T00:25:21.612Z,21.40
2017-06-26T00:27:49.064Z,21.40
2017-06-26T00:30:16.549Z,21.40
2017-06-26T00:32:43.993Z,21.30
2017-06-26T00:35:11.492Z,21.30
2017-06-26T00:37:39.281Z,21.20
2017-06-26T00:40:07.136Z,21.20
2017-06-26T00:42:35.030Z,21.10
2017-06-26T00:45:02.974Z,21.20
2017-06-26T00:47:30.457Z,21.10
2017-06-26T00:49:58.318Z,21.10
2017-06-26T00:52:26.220Z,21.00
2017-06-26T00:54:53.668Z,21.10
2017-06-26T00:57:21.120Z,21.00
2017-06-26T00:59:49.001Z,21.10
2017-06-26T01:02:16.444Z,21.10
2017-06-26T01:04:44.293Z,21.00
2017-06-26T01:07:11.784Z,21.10
2017-06-26T01:09:39.641Z,21.10
2017-06-26T01:12:07.091Z,21.10
2017-06-26T01:14:34.564Z,21.10
2017-06-26T01:17:02.016Z,21.10
2017-06-26T01:19:29.481Z,21.00
2017-06-26T01:21:57.242Z,21.00
2017-06-26T01:24:24.706Z,21.00
2017-06-26T01:26:52.156Z,21.00
2017-06-26T01:29:19.646Z,21.00
2017-06-26T01:31:47.107Z,21.10
2017-06-26T01:34:14.557Z,21.00
2017-06-26T01:36:42.319Z,21.00
2017-06-26T01:39:09.772Z,21.00
2017-06-26T01:41:37.230Z,21.00
2017-06-26T01:44:04.732Z,20.90
2017-06-26T01:46:32.619Z,20.90
2017-06-26T01:49:00.067Z,20.90
2017-06-26T01:51:28.844Z,20.80
2017-06-26T01:53:56.311Z,20.90
2017-06-26T01:56:24.677Z,20.90
2017-06-26T01:58:52.180Z,20.90
2017-06-26T02:01:19.629Z,20.90
2017-06-26T02:03:47.482Z,20.90
2017-06-26T02:06:14.949Z,20.90
2017-06-26T02:08:42.502Z,21.00
2017-06-26T02:11:09.952Z,21.00
2017-06-26T02:13:37.415Z,21.00
2017-06-26T02:16:04.913Z,21.00
2017-06-26T02:18:32.796Z,21.00
2017-06-26T02:21:00.248Z,21.00
2017-06-26T02:23:28.093Z,21.00
2017-06-26T02:25:55.598Z,21.10
2017-06-26T02:28:23.776Z,21.00
2017-06-26T02:30:51.232Z,21.10
2017-06-26T02:33:18.700Z,21.10
2017-06-26T02:35:46.200Z,21.10
2017-06-26T02:38:13.668Z,21.00
2017-06-26T02:40:41.119Z,21.00
2017-06-26T02:43:08.821Z,21.00
2017-06-26T02:45:36.266Z,21.00
2017-06-26T02:48:03.713Z,21.00
2017-06-26T02:50:31.209Z,21.00
2017-06-26T02:52:58.661Z,21.00
2017-06-26T02:55:26.109Z,20.90
2017-06-26T02:57:53.787Z,20.90
2017-06-26T03:00:21.232Z,20.90
2017-06-26T03:02:48.684Z,20.90
2017-06-26T03:05:17.112Z,20.90
2017-06-26T03:07:44.970Z,20.90
2017-06-26T03:10:12.425Z,21.00
2017-06-26T03:12:39.885Z,21.00
2017-06-26T03:15:07.344Z,21.00
2017-06-26T03:17:34.938Z,21.00
2017-06-26T03:20:02.790Z,20.90
2017-06-26T03:22:30.236Z,20.90
2017-06-26T03:24:57.725Z,20.90
2017-06-26T03:27:25.288Z,20.80
2017-06-26T03:29:52.742Z,20.80
2017-06-26T03:32:20.227Z,20.80
2017-06-26T03:34:48.089Z,20.70
2017-06-26T03:37:15.543Z,20.70
2017-06-26T03:39:43.220Z,20.70
2017-06-26T03:42:11.196Z,20.60
2017-06-26T03:44:38.651Z,20.60
2017-06-26T03:47:06.131Z,20.50
2017-06-26T03:49:33.983Z,20.40
2017-06-26T03:52:01.429Z,20.40
2017-06-26T03:54:28.929Z,20.40
2017-06-26T03:56:56.396Z,20.40
2017-06-26T03:59:23.847Z,20.30
2017-06-26T04:01:51.584Z,20.30
2017-06-26T04:04:19.033Z,20.30
2017-06-26T04:06:46.526Z,20.30
2017-06-26T04:09:14.081Z,20.30
2017-06-26T04:11:41.559Z,20.30
2017-06-26T04:14:09.805Z,20.20
2017-06-26T04:16:37.296Z,20.20
2017-06-26T04:19:04.821Z,20.20
2017-06-26T04:21:32.334Z,20.20
2017-06-26T04:24:00.247Z,20.30
2017-06-26T04:26:27.750Z,20.30
2017-06-26T04:28:55.364Z,20.30
2017-06-26T04:31:22.834Z,20.30
2017-06-26T04:33:50.296Z,20.30
2017-06-26T04:36:17.808Z,20.40
2017-06-26T04:38:45.299Z,20.40
2017-06-26T04:41:13.533Z,20.50
2017-06-26T04:43:41.000Z,20.50
2017-06-26T04:46:08.466Z,20.40
2017-06-26T04:48:36.010Z,20.50
2017-06-26T04:51:03.485Z,20.50
2017-06-26T04:53:30.975Z,20.50
2017-06-26T04:55:58.899Z,20.50
2017-06-26T04:58:26.376Z,20.50
2017-06-26T05:00:54.751Z,20.50
2017-06-26T05:03:22.262Z,20.60
2017-06-26T05:05:50.144Z,20.60
2017-06-26T05:08:17.672Z,20.60
2017-06-26T05:10:45.157Z,20.60
2017-06-26T05:13:13.052Z,20.70
2017-06-26T05:15:40.566Z,20.70
2017-06-26T05:18:08.034Z,20.70
2017-06-26T05:20:35.493Z,20.80
2017-06-26T05:23:03.021Z,20.80
2017-06-26T05:25:30.500Z,20.90
2017-06-26T05:27:58.238Z,20.90
2017-06-26T05:30:25.746Z,20.90
2017-06-26T05:32:53.300Z,20.90
2017-06-26T05:35:20.771Z,20.90
2017-06-26T05:37:48.251Z,20.90
2017-06-26T05:40:15.923Z,20.80
2017-06-26T05:42:43.795Z,20.90
2017-06-26T05:45:11.265Z,20.90
2017-06-26T05:47:39.186Z,21.00
2017-06-26T05:50:06.661Z,21.00
2017-06-26T05:52:34.144Z,21.00
2017-06-26T05:55:01.638Z,21.10
2017-06-26T05:57:29.104Z,21.10
2017-06-26T05:59:56.626Z,21.20
2017-06-26T06:02:24.091Z,21.20
2017-06-26T06:04:51.720Z,21.30
2017-06-26T06:20:25.393Z,21.30
2017-06-26T06:22:52.844Z,21.90
2017-06-26T06:25:20.350Z,22.00
2017-06-26T06:27:47.871Z,22.00
2017-06-26T06:30:16.019Z,22.10
2017-06-26T06:32:43.515Z,22.10
2017-06-26T06:35:11.009Z,22.20
2017-06-26T06:37:38.468Z,22.10
2017-06-26T06:40:05.968Z,22.10
2017-06-26T06:42:33.903Z,22.00
2017-06-26T06:45:01.349Z,22.00
2017-06-26T06:47:28.830Z,22.00
2017-06-26T06:49:56.602Z,22.00
2017-06-26T06:52:24.079Z,22.00
2017-06-26T06:54:51.542Z,22.00
2017-06-26T06:57:19.059Z,22.00
2017-06-26T06:59:46.530Z,22.00
2017-06-26T07:02:14.857Z,22.10
2017-06-26T07:04:42.386Z,22.10
2017-06-26T07:07:09.845Z,22.10
2017-06-26T07:09:37.474Z,22.20
2017-06-26T07:12:05.411Z,22.30
2017-06-26T07:14:32.869Z,22.30
2017-06-26T07:17:00.413Z,22.30
2017-06-26T07:19:27.855Z,22.40
2017-06-26T07:21:55.330Z,22.50
2017-06-26T07:24:22.852Z,22.50
2017-06-26T07:26:50.743Z,22.60
2017-06-26T07:29:18.225Z,22.60
2017-06-26T07:31:45.878Z,22.60
2017-06-26T07:34:13.369Z,22.70
2017-06-26T07:36:40.864Z,22.80
2017-06-26T07:39:08.752Z,22.80
2017-06-26T07:41:36.621Z,22.80
2017-06-26T07:44:05.029Z,22.80
2017-06-26T07:46:32.518Z,22.80
2017-06-26T07:49:00.011Z,22.80
2017-06-26T07:51:27.522Z,22.90
2017-06-26T07:53:55.002Z,22.90
2017-06-26T07:56:22.534Z,23.00
2017-06-26T07:58:50.046Z,23.10
2017-06-26T08:01:17.582Z,23.20
2017-06-26T08:03:45.072Z,23.30
2017-06-26T08:06:12.602Z,23.30
2017-06-26T08:08:40.080Z,23.30
2017-06-26T08:11:07.556Z,23.30
2017-06-26T08:13:35.208Z,23.40
2017-06-26T08:16:02.671Z,23.40
2017-06-26T08:18:30.197Z,23.60
2017-06-26T08:20:58.661Z,23.60
2017-06-26T08:23:26.544Z,23.70
2017-06-26T08:25:54.420Z,23.60
2017-06-26T08:30:56.762Z,23.80
2017-06-26T08:33:24.270Z,23.80
2017-06-26T08:35:52.186Z,24.00
2017-06-26T08:38:19.713Z,24.00
2017-06-26T08:40:47.611Z,24.00
2017-06-26T08:43:15.103Z,24.10
2017-06-26T08:45:42.574Z,24.20
2017-06-26T08:48:10.119Z,24.20
2017-06-26T08:50:37.622Z,24.30
2017-06-26T08:53:05.108Z,24.40
2017-06-26T08:55:33.044Z,24.50
2017-06-26T08:58:00.761Z,24.60
2017-06-26T09:03:02.349Z,24.70
2017-06-26T09:05:30.382Z,24.70
2017-06-26T09:07:58.329Z,24.60
2017-06-26T09:10:25.824Z,24.60
2017-06-26T09:12:53.693Z,24.70
2017-06-26T09:15:21.749Z,24.70
2017-06-26T09:17:49.237Z,24.70
2017-06-26T09:20:17.106Z,25.00
2017-06-26T09:22:45.032Z,25.20
2017-06-26T09:25:12.512Z,25.20
2017-06-26T09:27:40.008Z,25.40
2017-06-26T09:30:07.894Z,25.80
2017-06-26T09:32:35.491Z,25.80
2017-06-26T09:35:02.961Z,25.90
2017-06-26T09:37:30.606Z,26.00
2017-06-26T09:39:58.124Z,26.10
2017-06-26T09:42:25.967Z,26.60
2017-06-26T09:44:54.102Z,26.60
2017-06-26T09:47:21.605Z,26.90
2017-06-26T09:49:49.076Z,27.20
2017-06-26T09:52:16.874Z,27.50
2017-06-26T09:54:44.756Z,28.20
2017-06-26T09:57:12.644Z,28.60
2017-06-26T09:59:40.152Z,28.60
2017-06-26T10:02:07.652Z,28.70
2017-06-26T10:04:35.560Z,29.40
2017-06-26T10:07:03.031Z,29.40
2017-06-26T10:09:30.534Z,29.90
2017-06-26T10:11:59.667Z,30.90
2017-06-26T10:14:27.171Z,30.90
2017-06-26T10:16:54.647Z,31.20
2017-06-26T10:19:22.202Z,31.00
2017-06-26T10:21:49.692Z,30.70
2017-06-26T10:24:18.384Z,29.90
2017-06-26T10:26:46.284Z,29.30
2017-06-26T10:29:13.762Z,29.30
2017-06-26T10:31:41.293Z,28.90
2017-06-26T10:34:08.794Z,28.60
2017-06-26T10:36:36.308Z,28.40
2017-06-26T10:39:04.481Z,27.80
2017-06-26T10:41:32.790Z,27.50
2017-06-26T10:44:00.290Z,27.50
2017-06-26T10:46:27.785Z,27.30
2017-06-26T10:48:55.283Z,27.00
2017-06-26T10:51:22.849Z,26.80
2017-06-26T10:53:50.329Z,26.70
2017-06-26T10:56:17.822Z,26.60
2017-06-26T10:58:45.325Z,26.60
2017-06-26T11:01:12.815Z,26.50
2017-06-26T11:03:40.349Z,26.50
2017-06-26T11:06:08.219Z,26.40
2017-06-26T11:08:35.702Z,26.40
2017-06-26T11:11:03.246Z,26.30
2017-06-26T11:13:30.740Z,26.30
2017-06-26T11:15:58.909Z,26.20
2017-06-26T11:18:27.250Z,26.30
2017-06-26T11:20:55.892Z,26.30
2017-06-26T11:23:24.060Z,26.40
2017-06-26T11:25:52.439Z,26.40
2017-06-26T11:28:19.898Z,26.40
2017-06-26T11:30:47.398Z,26.40
2017-06-26T11:33:15.101Z,26.40
2017-06-26T11:35:42.963Z,26.40
2017-06-26T11:38:10.833Z,26.50
2017-06-26T11:40:38.380Z,26.50
2017-06-26T11:43:05.874Z,26.50
2017-06-26T11:45:33.773Z,26.70
2017-06-26T11:48:01.288Z,26.70
2017-06-26T11:50:29.161Z,26.90
2017-06-26T11:52:56.644Z,26.90
2017-06-26T11:55:24.506Z,27.00
2017-06-26T11:57:52.416Z,27.00
2017-06-26T12:00:19.882Z,27.00
2017-06-26T12:02:47.423Z,27.00
2017-06-26T12:05:14.901Z,27.00
2017-06-26T12:07:42.659Z,27.00
2017-06-26T12:10:10.199Z,27.00
2017-06-26T12:12:38.116Z,27.00
2017-06-26T12:15:05.576Z,27.00
2017-06-26T12:17:33.398Z,27.00
2017-06-26T12:20:01.247Z,27.10
2017-06-26T12:22:28.724Z,27.20
2017-06-26T12:24:56.273Z,27.10
2017-06-26T12:27:23.772Z,27.20
2017-06-26T12:29:51.700Z,27.20
2017-06-26T12:32:19.176Z,27.20
2017-06-26T12:34:46.647Z,27.30
2017-06-26T12:37:14.214Z,27.30
2017-06-26T12:39:42.098Z,27.40
2017-06-26T12:42:09.973Z,27.50
2017-06-26T12:44:37.962Z,27.50
2017-06-26T12:47:05.469Z,27.50
2017-06-26T12:49:32.939Z,27.60
2017-06-26T12:52:00.620Z,27.60
2017-06-26T12:54:28.110Z,27.70
2017-06-26T12:56:55.601Z,27.70
2017-06-26T12:59:23.794Z,27.80
2017-06-26T13:01:51.277Z,27.90
2017-06-26T13:04:19.227Z,28.00
2017-06-26T13:06:46.692Z,28.00
2017-06-26T13:09:14.204Z,28.00
2017-06-26T13:11:42.110Z,28.10
2017-06-26T13:14:09.577Z,28.10
2017-06-26T13:16:37.125Z,28.10
2017-06-26T13:19:04.628Z,28.00
2017-06-26T13:21:32.113Z,27.90
2017-06-26T13:24:00.080Z,27.90
2017-06-26T13:26:27.568Z,27.90
2017-06-26T13:28:55.676Z,28.00
2017-06-26T13:31:23.403Z,28.00
2017-06-26T13:33:51.284Z,28.10
2017-06-26T13:36:19.873Z,28.10
2017-06-26T13:38:47.421Z,28.10
2017-06-26T13:41:14.886Z,28.10
2017-06-26T13:43:42.792Z,28.20
2017-06-26T13:46:10.544Z,28.20
2017-06-26T13:48:38.040Z,28.30
2017-06-26T13:51:05.512Z,28.30
2017-06-26T13:53:33.032Z,28.40
2017-06-26T13:56:00.532Z,28.40
2017-06-26T13:58:28.056Z,28.50
2017-06-26T14:00:56.132Z,28.60
2017-06-26T14:03:24.005Z,28.70
2017-06-26T14:05:51.884Z,28.70
2017-06-26T14:08:19.418Z,28.70
2017-06-26T14:10:47.311Z,28.90
2017-06-26T14:13:15.199Z,28.90
2017-06-26T14:15:43.274Z,28.90
2017-06-26T14:18:10.783Z,29.00
2017-06-26T14:20:38.316Z,29.10
2017-06-26T14:23:05.839Z,29.20
2017-06-26T14:25:33.712Z,29.40
2017-06-26T14:28:01.640Z,29.40
2017-06-26T14:30:29.107Z,29.40
2017-06-26T14:32:56.587Z,29.30
2017-06-26T14:35:24.870Z,29.30
2017-06-26T14:37:52.898Z,29.30
2017-06-26T14:40:20.875Z,29.30
2017-06-26T14:42:49.268Z,29.20
2017-06-26T14:45:17.124Z,29.20
2017-06-26T14:47:45.915Z,29.20
2017-06-26T14:50:13.422Z,29.10
2017-06-26T14:52:41.784Z,29.20
2017-06-26T14:55:09.917Z,29.20
2017-06-26T14:57:38.116Z,29.30
2017-06-26T15:00:05.755Z,29.30
2017-06-26T15:02:33.730Z,29.40
2017-06-26T15:05:01.626Z,29.40
2017-06-26T15:07:29.259Z,29.40
2017-06-26T15:09:56.805Z,29.40
2017-06-26T15:12:24.375Z,29.50
2017-06-26T15:14:51.898Z,29.50
2017-06-26T15:17:19.499Z,29.50
2017-06-26T15:19:47.328Z,29.60
2017-06-26T15:22:14.877Z,29.50
2017-06-26T15:24:42.857Z,29.40
2017-06-26T15:27:10.483Z,29.50
2017-06-26T15:29:38.174Z,29.50
2017-06-26T15:32:06.416Z,29.30
2017-06-26T15:34:33.949Z,29.30
2017-06-26T15:37:01.608Z,29.30
2017-06-26T15:39:30.023Z,29.30
2017-06-26T15:41:58.786Z,29.30
2017-06-26T15:44:26.472Z,29.20
2017-06-26T15:46:54.022Z,29.20
2017-06-26T15:49:21.538Z,29.20
2017-06-26T15:51:49.438Z,29.10
2017-06-26T15:54:19.519Z,29.10
2017-06-26T15:56:46.996Z,29.00
2017-06-26T15:59:15.147Z,29.00
2017-06-26T16:01:42.850Z,29.00
2017-06-26T16:04:11.351Z,29.00
2017-06-26T16:06:39.079Z,29.00
2017-06-26T16:09:07.083Z,28.90
2017-06-26T16:11:35.126Z,28.80
2017-06-26T16:14:02.989Z,28.80
2017-06-26T16:16:30.852Z,28.90
2017-06-26T16:18:58.946Z,28.80
2017-06-26T16:21:26.849Z,28.70
2017-06-26T16:23:55.219Z,28.70
2017-06-26T16:26:23.768Z,28.70
2017-06-26T16:28:51.641Z,28.70
2017-06-26T16:31:19.445Z,28.60
2017-06-26T16:33:47.554Z,28.50
2017-06-26T16:36:15.504Z,28.50
2017-06-26T16:38:43.429Z,28.40
2017-06-26T16:41:10.916Z,28.40
2017-06-26T16:43:39.210Z,28.40
2017-06-26T16:46:07.391Z,28.40
2017-06-26T16:48:35.275Z,28.30
2017-06-26T16:51:03.194Z,28.20
2017-06-26T16:53:30.805Z,28.20
2017-06-26T16:56:00.939Z,28.30
2017-06-26T16:58:28.513Z,28.30
2017-06-26T17:00:55.974Z,28.30
2017-06-26T17:03:23.465Z,28.30
2017-06-26T17:05:51.166Z,28.30
2017-06-26T17:08:18.661Z,28.30
2017-06-26T17:10:46.121Z,28.30
2017-06-26T17:13:13.658Z,28.30
2017-06-26T17:15:41.572Z,28.30
2017-06-26T17:18:09.377Z,28.30
2017-06-26T17:20:36.929Z,28.30
2017-06-26T17:23:04.410Z,28.20
2017-06-26T17:25:32.077Z,28.10
2017-06-26T17:27:59.542Z,28.00
2017-06-26T17:30:27.022Z,27.90
2017-06-26T17:32:54.787Z,27.80
2017-06-26T17:35:22.249Z,27.60
2017-06-26T17:37:49.757Z,27.40
2017-06-26T17:40:17.290Z,27.40
2017-06-26T17:42:45.203Z,27.30
2017-06-26T17:45:12.727Z,27.30
2017-06-26T17:47:40.699Z,27.30
2017-06-26T17:50:08.636Z,27.30
2017-06-26T17:52:36.576Z,27.30
2017-06-26T17:55:04.113Z,27.30
2017-06-26T17:57:32.014Z,27.10
2017-06-26T17:59:59.611Z,27.20
2017-06-26T18:02:27.567Z,27.10
2017-06-26T18:04:55.036Z,27.10
2017-06-26T18:07:22.496Z,27.10
2017-06-26T18:09:50.205Z,27.10
2017-06-26T18:12:18.126Z,27.00
2017-06-26T18:14:45.606Z,27.00
2017-06-26T18:17:13.303Z,26.90
2017-06-26T18:19:41.195Z,26.90
2017-06-26T18:22:09.126Z,26.80
2017-06-26T18:24:36.701Z,26.80
2017-06-26T18:27:04.244Z,26.80
2017-06-26T18:29:31.954Z,26.80
2017-06-26T18:31:59.450Z,26.70
2017-06-26T18:34:26.960Z,26.70
2017-06-26T18:36:54.523Z,26.70
2017-06-26T18:39:22.103Z,26.60
2017-06-26T18:41:49.989Z,26.60
2017-06-26T18:44:17.941Z,26.60
2017-06-26T18:46:45.457Z,26.70
2017-06-26T18:49:14.033Z,26.60
2017-06-26T18:51:41.602Z,26.60
2017-06-26T18:54:09.115Z,26.50
2017-06-26T18:56:36.876Z,26.40
2017-06-26T18:59:04.404Z,26.40
2017-06-26T19:01:31.964Z,26.30
2017-06-26T19:03:59.586Z,26.30
2017-06-26T19:06:27.651Z,26.20
2017-06-26T19:08:55.399Z,26.20
2017-06-26T19:11:22.888Z,26.10
2017-06-26T19:13:50.340Z,25.90
2017-06-26T19:16:17.819Z,25.90
2017-06-26T19:18:45.726Z,25.70
2017-06-26T19:21:13.184Z,25.80
2017-06-26T19:23:40.673Z,25.70
2017-06-26T19:26:08.668Z,25.60
2017-06-26T19:28:36.219Z,25.50
2017-06-26T19:31:03.825Z,25.50
2017-06-26T19:33:31.693Z,25.40
2017-06-26T19:35:59.631Z,25.30
2017-06-26T19:38:27.112Z,25.30
2017-06-26T19:40:54.572Z,25.20
2017-06-26T19:43:22.091Z,25.20
2017-06-26T19:45:49.615Z,25.00
2017-06-26T19:48:17.529Z,25.00
2017-06-26T19:50:45.014Z,25.00
2017-06-26T19:53:12.519Z,24.90
2017-06-26T19:55:40.470Z,24.90
2017-06-26T19:58:07.957Z,24.90
2017-06-26T20:00:35.827Z,24.80
2017-06-26T20:03:03.886Z,24.80
2017-06-26T20:05:32.072Z,24.80
2017-06-26T20:07:59.944Z,24.70
2017-06-26T20:10:27.844Z,24.60
2017-06-26T20:12:55.452Z,24.70
2017-06-26T20:15:22.962Z,24.60
2017-06-26T20:17:50.865Z,24.50
2017-06-26T20:20:18.912Z,24.50
2017-06-26T20:22:46.387Z,24.50
2017-06-26T20:25:14.114Z,24.40
2017-06-26T20:27:41.627Z,24.40
2017-06-26T20:30:09.109Z,24.40
2017-06-26T20:32:36.639Z,24.40
2017-06-26T20:35:04.199Z,24.40
2017-06-26T20:37:31.684Z,24.30
2017-06-26T20:39:59.172Z,24.30
2017-06-26T20:42:26.661Z,24.30
2017-06-26T20:44:54.191Z,24.30
2017-06-26T20:47:21.682Z,24.20
2017-06-26T20:49:49.595Z,24.20
2017-06-26T20:52:17.666Z,24.20
2017-06-26T20:54:45.163Z,24.20
2017-06-26T20:57:12.662Z,24.10
2017-06-26T20:59:40.684Z,24.10
2017-06-26T21:02:08.169Z,24.10
2017-06-26T21:04:35.678Z,24.00
2017-06-26T21:07:03.191Z,24.00
2017-06-26T21:09:31.376Z,24.00
2017-06-26T21:12:00.242Z,24.00
2017-06-26T21:14:27.734Z,23.90
2017-06-26T21:16:55.200Z,23.90
2017-06-26T21:19:22.716Z,23.80
2017-06-26T21:21:50.207Z,23.80
2017-06-26T21:24:17.703Z,23.80
2017-06-26T21:26:45.221Z,23.80
2017-06-26T21:29:12.746Z,23.70
2017-06-26T21:31:40.622Z,23.70
2017-06-26T21:34:08.998Z,23.70
2017-06-26T21:36:36.462Z,23.70
2017-06-26T21:39:04.332Z,23.70
2017-06-26T21:41:32.246Z,23.70
2017-06-26T21:43:59.722Z,23.70
2017-06-26T21:46:27.228Z,23.60
2017-06-26T21:48:55.302Z,23.60
2017-06-26T21:51:23.198Z,23.60
2017-06-26T21:53:51.097Z,23.60
2017-06-26T21:56:18.718Z,23.50
2017-06-26T21:58:46.582Z,23.50
2017-06-26T22:01:14.109Z,23.50
2017-06-26T22:03:41.891Z,23.40
2017-06-26T22:06:09.355Z,23.40
2017-06-26T22:08:36.871Z,23.40
2017-06-26T22:11:04.456Z,23.30
2017-06-26T22:13:31.996Z,23.30
2017-06-26T22:15:59.542Z,23.30
2017-06-26T22:18:27.829Z,23.20
2017-06-26T22:20:56.442Z,23.20
2017-06-26T22:23:23.975Z,23.20
2017-06-26T22:25:51.948Z,23.10
2017-06-26T22:28:19.510Z,23.10
2017-06-26T22:30:47.430Z,23.10
2017-06-26T22:33:15.028Z,23.10
2017-06-26T22:35:42.783Z,23.10
2017-06-26T22:38:10.256Z,23.00
2017-06-26T22:40:37.788Z,23.00
2017-06-26T22:43:05.355Z,23.00
2017-06-26T22:45:32.902Z,22.90
2017-06-26T22:48:00.467Z,22.80
2017-06-26T22:50:27.975Z,22.80
2017-06-26T22:52:55.694Z,22.80
2017-06-26T22:55:23.234Z,22.80
2017-06-26T22:57:50.732Z,22.70
2017-06-26T23:00:18.239Z,22.70
2017-06-26T23:02:45.779Z,22.70
2017-06-26T23:05:13.279Z,22.60
2017-06-26T23:07:41.387Z,22.60
2017-06-26T23:10:08.930Z,22.60
2017-06-26T23:12:36.834Z,22.50
2017-06-26T23:15:04.527Z,22.50
2017-06-26T23:17:32.069Z,22.50
2017-06-26T23:19:59.598Z,22.40
2017-06-26T23:22:27.514Z,22.40
2017-06-26T23:24:55.040Z,22.40
2017-06-26T23:27:23.025Z,22.30
2017-06-26T23:29:50.537Z,22.30
2017-06-26T23:32:18.059Z,22.30
2017-06-26T23:34:45.592Z,22.30
2017-06-26T23:37:13.081Z,22.30
2017-06-26T23:39:41.389Z,22.30
2017-06-26T23:42:08.898Z,22.30
2017-06-26T23:44:36.790Z,22.20
2017-06-26T23:47:04.341Z,22.20
2017-06-26T23:49:32.288Z,22.20
2017-06-26T23:51:59.803Z,22.20
2017-06-26T23:54:27.321Z,22.20
2017-06-26T23:56:54.880Z,22.20
2017-06-26T23:59:22.500Z,22.10
